createdAt,value
2023-03-29T00:00:09.538Z,101070.09
2023-03-29T00:02:38.484Z,101072.22
2023-03-29T00:05:06.802Z,101068.72
2023-03-29T00:07:34.603Z,101065.63
2023-03-29T00:10:02.407Z,101052.69
2023-03-29T00:12:29.895Z,101049.31
2023-03-29T00:14:57.347Z,101054.50
2023-03-29T00:17:24.853Z,101064.72
2023-03-29T00:19:53.644Z,101058.25
2023-03-29T00:22:21.258Z,101058.53
2023-03-29T00:24:49.141Z,101050.44
2023-03-29T00:27:16.614Z,101050.22
2023-03-29T00:29:44.124Z,101052.84
2023-03-29T00:32:11.641Z,101039.63
2023-03-29T00:34:39.111Z,101030.38
2023-03-29T00:37:09.526Z,101029.13
2023-03-29T00:39:37.658Z,101035.03
2023-03-29T00:42:05.405Z,101031.78
2023-03-29T00:45:02.442Z,101024.78
2023-03-29T00:47:33.755Z,101017.09
2023-03-29T00:50:04.637Z,101026.47
2023-03-29T00:52:34.910Z,101018.69
2023-03-29T00:55:05.720Z,101019.28
2023-03-29T00:57:34.266Z,101021.19
2023-03-29T01:00:04.753Z,101026.47
2023-03-29T01:02:34.624Z,101023.13
2023-03-29T01:05:06.305Z,101028.78
2023-03-29T01:07:38.976Z,101020.94
2023-03-29T01:10:10.805Z,101014.94
2023-03-29T01:12:41.254Z,101015.19
2023-03-29T01:15:11.990Z,101012.53
2023-03-29T01:17:40.529Z,101010.34
2023-03-29T01:20:14.238Z,101004.38
2023-03-29T01:22:55.235Z,100995.63
2023-03-29T01:25:27.424Z,100989.19
2023-03-29T01:27:59.211Z,100985.94
2023-03-29T01:30:30.614Z,100975.03
2023-03-29T01:33:00.372Z,100971.94
2023-03-29T01:35:32.504Z,100972.53
2023-03-29T01:38:02.579Z,100966.56
2023-03-29T01:40:31.056Z,100964.22
2023-03-29T01:43:07.391Z,100968.22
2023-03-29T01:45:38.001Z,100974.41
2023-03-29T01:48:10.238Z,100959.91
2023-03-29T01:50:42.746Z,100960.38
2023-03-29T01:53:13.689Z,100945.84
2023-03-29T01:55:44.802Z,100950.38
2023-03-29T01:58:14.486Z,100954.03
2023-03-29T02:00:43.701Z,100953.88
2023-03-29T02:03:11.741Z,100954.69
2023-03-29T02:05:41.055Z,100958.53
2023-03-29T02:08:10.780Z,100946.16
2023-03-29T02:10:38.771Z,100944.53
2023-03-29T02:13:06.513Z,100950.53
2023-03-29T02:15:35.387Z,100950.69
2023-03-29T02:18:04.067Z,100948.34
2023-03-29T02:20:33.448Z,100945.34
2023-03-29T02:23:04.730Z,100932.56
2023-03-29T02:25:32.552Z,100935.50
2023-03-29T02:28:00.800Z,100934.59
2023-03-29T02:30:31.591Z,100927.63
2023-03-29T02:33:05.977Z,100924.66
2023-03-29T02:35:36.385Z,100932.00
2023-03-29T02:38:05.773Z,100932.59
2023-03-29T02:40:34.689Z,100924.31
2023-03-29T02:43:03.080Z,100915.75
2023-03-29T02:45:31.282Z,100916.28
2023-03-29T02:48:03.649Z,100913.72
2023-03-29T02:50:35.991Z,100923.88
2023-03-29T02:53:06.903Z,100913.78
2023-03-29T02:55:35.436Z,100903.59
2023-03-29T02:58:07.785Z,100917.72
2023-03-29T03:00:36.911Z,100921.72
2023-03-29T03:03:07.653Z,100904.63
2023-03-29T03:05:35.364Z,100903.44
2023-03-29T03:08:04.439Z,100900.94
2023-03-29T03:10:33.608Z,100889.63
2023-03-29T03:13:01.426Z,100893.69
2023-03-29T03:15:28.913Z,100890.56
2023-03-29T03:17:56.384Z,100880.53
2023-03-29T03:20:26.457Z,100884.63
2023-03-29T03:22:53.952Z,100890.59
2023-03-29T03:25:21.871Z,100882.50
2023-03-29T03:27:50.165Z,100890.88
2023-03-29T03:30:18.395Z,100880.53
2023-03-29T03:32:45.910Z,100878.72
2023-03-29T03:35:14.163Z,100875.56
2023-03-29T03:37:42.980Z,100876.31
2023-03-29T03:40:13.463Z,100866.19
2023-03-29T03:42:41.184Z,100880.91
2023-03-29T03:45:10.562Z,100873.56
2023-03-29T03:47:38.668Z,100876.53
2023-03-29T03:50:08.514Z,100877.81
2023-03-29T03:52:36.206Z,100870.47
2023-03-29T03:55:05.534Z,100869.88
2023-03-29T03:57:33.101Z,100872.63
2023-03-29T04:00:00.588Z,100878.41
2023-03-29T04:02:28.115Z,100866.72
2023-03-29T04:04:55.689Z,100873.81
2023-03-29T04:07:25.399Z,100874.47
2023-03-29T04:09:52.937Z,100874.25
2023-03-29T04:12:21.720Z,100861.03
2023-03-29T04:14:49.182Z,100865.56
2023-03-29T04:17:16.613Z,100865.94
2023-03-29T04:19:44.064Z,100863.69
2023-03-29T04:22:11.506Z,100867.94
2023-03-29T04:24:38.939Z,100871.09
2023-03-29T04:27:06.418Z,100866.03
2023-03-29T04:29:35.182Z,100866.44
2023-03-29T04:32:02.651Z,100864.44
2023-03-29T04:34:30.100Z,100860.00
2023-03-29T04:36:58.694Z,100861.63
2023-03-29T04:39:31.938Z,100862.78
2023-03-29T04:42:00.048Z,100855.59
2023-03-29T04:44:27.971Z,100850.91
2023-03-29T04:46:56.777Z,100855.47
2023-03-29T04:49:26.071Z,100857.72
2023-03-29T04:51:54.210Z,100855.97
2023-03-29T04:54:21.859Z,100844.72
2023-03-29T04:56:49.406Z,100849.41
2023-03-29T04:59:16.883Z,100846.38
2023-03-29T05:01:45.130Z,100849.13
2023-03-29T05:04:14.587Z,100844.88
2023-03-29T05:06:42.066Z,100853.41
2023-03-29T05:09:10.454Z,100844.56
2023-03-29T05:11:38.308Z,100851.66
2023-03-29T05:14:07.251Z,100852.56
2023-03-29T05:16:35.599Z,100848.06
2023-03-29T05:19:03.252Z,100852.72
2023-03-29T05:21:33.476Z,100859.44
2023-03-29T05:24:00.924Z,100859.53
2023-03-29T05:26:29.503Z,100855.31
2023-03-29T05:28:57.193Z,100853.78
2023-03-29T05:31:24.857Z,100850.16
2023-03-29T05:33:52.600Z,100856.41
2023-03-29T05:36:20.259Z,100869.63
2023-03-29T05:38:49.803Z,100861.84
2023-03-29T05:41:18.524Z,100862.09
2023-03-29T05:43:46.350Z,100858.16
2023-03-29T05:46:13.872Z,100857.41
2023-03-29T05:48:41.512Z,100842.38
2023-03-29T05:51:09.376Z,100849.56
2023-03-29T05:53:37.719Z,100850.63
2023-03-29T05:56:08.688Z,100855.97
2023-03-29T05:58:36.260Z,100850.69
2023-03-29T06:01:05.220Z,100854.75
2023-03-29T06:03:47.512Z,100850.16
2023-03-29T06:06:16.453Z,100840.88
2023-03-29T06:08:44.665Z,100846.47
2023-03-29T06:11:14.257Z,100846.94
2023-03-29T06:13:42.062Z,100850.38
2023-03-29T06:16:10.193Z,100857.66
2023-03-29T06:18:38.022Z,100860.25
2023-03-29T06:21:06.673Z,100857.28
2023-03-29T06:23:34.136Z,100870.88
2023-03-29T06:26:01.718Z,100868.22
2023-03-29T06:28:30.734Z,100874.59
2023-03-29T06:31:02.614Z,100870.44
2023-03-29T06:33:32.194Z,100865.75
2023-03-29T06:35:59.832Z,100868.66
2023-03-29T06:38:28.405Z,100865.13
2023-03-29T06:41:01.512Z,100857.81
2023-03-29T06:43:33.272Z,100869.25
2023-03-29T06:46:00.943Z,100870.28
2023-03-29T06:49:13.350Z,100866.34
2023-03-29T06:51:41.130Z,100874.16
2023-03-29T06:54:08.553Z,100872.75
2023-03-29T06:56:35.981Z,100876.44
2023-03-29T06:59:04.792Z,100873.69
2023-03-29T07:01:32.952Z,100873.13
2023-03-29T07:04:04.575Z,100870.19
2023-03-29T07:06:32.114Z,100872.22
2023-03-29T07:09:01.305Z,100876.97
2023-03-29T07:11:29.022Z,100872.00
2023-03-29T07:13:56.454Z,100869.50
2023-03-29T07:16:25.285Z,100869.63
2023-03-29T07:18:52.763Z,100879.13
2023-03-29T07:21:20.585Z,100876.38
2023-03-29T07:23:48.051Z,100870.41
2023-03-29T07:26:28.589Z,100870.69
2023-03-29T07:28:56.567Z,100879.03
2023-03-29T07:31:25.442Z,100879.84
2023-03-29T07:33:53.188Z,100886.28
2023-03-29T07:36:21.109Z,100891.44
2023-03-29T07:38:48.942Z,100894.00
2023-03-29T07:41:16.730Z,100890.38
2023-03-29T07:43:44.248Z,100895.53
2023-03-29T07:46:11.796Z,100893.03
2023-03-29T07:48:40.707Z,100897.84
2023-03-29T07:51:08.718Z,100900.72
2023-03-29T07:53:36.210Z,100893.47
2023-03-29T07:56:04.470Z,100900.81
2023-03-29T07:58:32.114Z,100907.59
2023-03-29T08:01:00.046Z,100900.81
2023-03-29T08:03:28.771Z,100895.50
2023-03-29T08:05:57.582Z,100907.78
2023-03-29T08:08:25.020Z,100900.47
2023-03-29T08:10:52.725Z,100895.66
2023-03-29T08:13:20.326Z,100892.19
2023-03-29T08:15:48.640Z,100898.47
2023-03-29T08:18:16.084Z,100898.00
2023-03-29T08:20:43.551Z,100888.53
2023-03-29T08:23:12.345Z,100898.19
2023-03-29T08:25:39.746Z,100883.38
2023-03-29T08:28:07.233Z,100884.31
2023-03-29T08:30:34.712Z,100878.84
2023-03-29T08:33:02.230Z,100878.81
2023-03-29T08:35:29.712Z,100877.97
2023-03-29T08:37:57.416Z,100871.28
2023-03-29T08:40:29.893Z,100873.22
2023-03-29T08:43:15.698Z,100875.00
2023-03-29T08:45:53.990Z,100874.50
2023-03-29T08:48:25.807Z,100873.50
2023-03-29T08:50:56.141Z,100870.44
2023-03-29T08:53:25.729Z,100872.97
2023-03-29T08:55:57.175Z,100865.78
2023-03-29T08:58:28.956Z,100872.88
2023-03-29T09:00:58.531Z,100878.00
2023-03-29T09:03:29.199Z,100876.22
2023-03-29T09:05:59.002Z,100863.94
2023-03-29T09:08:26.674Z,100882.06
2023-03-29T09:11:10.858Z,100888.22
2023-03-29T09:13:43.779Z,100884.63
2023-03-29T09:16:14.565Z,100882.50
2023-03-29T09:18:51.645Z,100886.56
2023-03-29T09:21:23.389Z,100882.59
2023-03-29T09:24:04.744Z,100874.31
2023-03-29T09:26:38.363Z,100879.41
2023-03-29T09:29:15.303Z,100877.63
2023-03-29T09:31:44.593Z,100881.88
2023-03-29T09:34:15.874Z,100874.22
2023-03-29T09:36:49.732Z,100869.94
2023-03-29T09:39:17.500Z,100856.91
2023-03-29T09:41:50.038Z,100859.88
2023-03-29T09:44:30.111Z,100863.84
2023-03-29T09:47:02.824Z,100867.44
2023-03-29T09:49:33.274Z,100865.97
2023-03-29T09:52:02.778Z,100873.59
2023-03-29T09:54:30.323Z,100873.56
2023-03-29T09:56:59.441Z,100867.72
2023-03-29T09:59:27.027Z,100868.19
2023-03-29T10:01:54.519Z,100875.28
2023-03-29T10:04:22.508Z,100879.22
2023-03-29T10:06:51.044Z,100866.91
2023-03-29T10:09:21.443Z,100866.22
2023-03-29T10:11:51.024Z,100860.19
2023-03-29T10:14:22.314Z,100859.53
2023-03-29T10:16:56.406Z,100855.34
2023-03-29T10:19:25.237Z,100859.75
2023-03-29T10:21:53.895Z,100859.28
2023-03-29T10:24:22.138Z,100859.09
2023-03-29T10:26:53.317Z,100842.81
2023-03-29T10:29:22.415Z,100841.25
2023-03-29T10:31:50.148Z,100844.66
2023-03-29T10:34:18.855Z,100836.09
2023-03-29T10:36:53.521Z,100822.56
2023-03-29T10:39:21.095Z,100808.72
2023-03-29T10:41:52.485Z,100809.63
2023-03-29T10:44:31.543Z,100815.06
2023-03-29T10:47:09.072Z,100814.25
2023-03-29T10:49:41.985Z,100819.19
2023-03-29T10:52:10.062Z,100830.94
2023-03-29T10:54:37.671Z,100821.66
2023-03-29T10:57:08.541Z,100815.50
2023-03-29T10:59:41.626Z,100809.22
2023-03-29T11:02:44.017Z,100817.84
2023-03-29T11:05:24.487Z,100811.84
2023-03-29T11:08:16.510Z,100809.84
2023-03-29T11:10:50.401Z,100802.31
2023-03-29T11:13:23.363Z,100798.28
2023-03-29T11:16:01.609Z,100802.69
2023-03-29T11:18:44.399Z,100802.66
2023-03-29T11:21:20.966Z,100800.66
2023-03-29T11:23:51.458Z,100804.94
2023-03-29T11:26:22.711Z,100804.56
2023-03-29T11:28:53.886Z,100807.03
2023-03-29T11:31:30.383Z,100804.44
2023-03-29T11:34:09.745Z,100798.03
2023-03-29T11:36:50.421Z,100797.66
2023-03-29T11:39:26.623Z,100797.31
2023-03-29T11:41:55.576Z,100804.13
2023-03-29T11:44:25.722Z,100799.19
2023-03-29T11:46:58.470Z,100786.84
2023-03-29T11:49:28.150Z,100792.41
2023-03-29T11:51:59.430Z,100789.38
2023-03-29T11:54:29.830Z,100789.31
2023-03-29T11:57:01.623Z,100782.56
2023-03-29T11:59:31.548Z,100777.97
2023-03-29T12:02:06.490Z,100781.72
2023-03-29T12:04:37.062Z,100780.19
2023-03-29T12:07:10.746Z,100776.94
2023-03-29T12:09:40.465Z,100779.41
2023-03-29T12:12:11.505Z,100768.50
2023-03-29T12:14:48.952Z,100759.91
2023-03-29T12:17:20.283Z,100748.63
2023-03-29T12:19:51.966Z,100760.78
2023-03-29T12:22:19.412Z,100751.13
2023-03-29T12:24:48.517Z,100744.22
2023-03-29T12:27:23.915Z,100753.50
2023-03-29T12:30:05.694Z,100753.88
2023-03-29T12:32:45.914Z,100749.03
2023-03-29T12:35:24.918Z,100738.94
2023-03-29T12:37:59.870Z,100744.50
2023-03-29T12:40:28.483Z,100734.81
2023-03-29T12:43:00.788Z,100727.63
2023-03-29T12:45:34.928Z,100732.13
2023-03-29T12:48:04.002Z,100732.13
2023-03-29T12:50:35.400Z,100717.06
2023-03-29T12:53:05.244Z,100720.91
2023-03-29T12:55:36.072Z,100723.72
2023-03-29T12:58:06.485Z,100715.91
2023-03-29T13:00:43.513Z,100715.34
2023-03-29T13:03:28.393Z,100720.84
2023-03-29T13:06:03.455Z,100703.94
2023-03-29T13:08:36.539Z,100706.25
2023-03-29T13:11:05.726Z,100706.47
2023-03-29T13:13:36.200Z,100704.97
2023-03-29T13:16:12.501Z,100697.81
2023-03-29T13:18:51.922Z,100686.25
2023-03-29T13:21:22.807Z,100683.09
2023-03-29T13:23:58.725Z,100680.19
2023-03-29T13:26:36.486Z,100679.94
2023-03-29T13:29:21.303Z,100676.66
2023-03-29T13:31:54.034Z,100680.25
2023-03-29T13:34:33.720Z,100677.63
2023-03-29T13:37:10.547Z,100675.09
2023-03-29T13:39:39.535Z,100674.41
2023-03-29T13:42:17.752Z,100679.78
2023-03-29T13:44:48.971Z,100674.91
2023-03-29T13:47:30.126Z,100661.56
2023-03-29T13:50:00.668Z,100648.59
2023-03-29T13:52:29.836Z,100646.50
2023-03-29T13:55:01.634Z,100639.88
2023-03-29T13:57:33.762Z,100641.66
2023-03-29T14:00:07.063Z,100638.16
2023-03-29T14:02:39.470Z,100638.81
2023-03-29T14:05:10.815Z,100639.63
2023-03-29T14:07:39.114Z,100642.16
2023-03-29T14:10:07.774Z,100635.16
2023-03-29T14:12:41.114Z,100632.91
2023-03-29T14:15:25.173Z,100631.34
2023-03-29T14:18:00.708Z,100631.31
2023-03-29T14:20:31.524Z,100623.78
2023-03-29T14:22:59.053Z,100619.59
2023-03-29T14:25:27.177Z,100608.84
2023-03-29T14:27:54.633Z,100604.91
2023-03-29T14:30:27.095Z,100608.06
2023-03-29T14:32:56.506Z,100604.06
2023-03-29T14:35:32.172Z,100595.19
2023-03-29T14:38:00.090Z,100592.72
2023-03-29T14:40:27.971Z,100591.53
2023-03-29T14:42:56.239Z,100588.78
2023-03-29T14:45:24.329Z,100585.38
2023-03-29T14:50:23.383Z,100585.94
2023-03-29T14:52:52.850Z,100579.50
2023-03-29T14:55:23.745Z,100573.31
2023-03-29T14:57:52.653Z,100574.31
2023-03-29T15:00:26.300Z,100580.00
2023-03-29T15:02:59.267Z,100571.94
2023-03-29T15:05:36.744Z,100561.66
2023-03-29T15:08:08.738Z,100554.13
2023-03-29T15:10:37.884Z,100543.03
2023-03-29T15:13:06.602Z,100544.97
2023-03-29T15:15:36.196Z,100543.88
2023-03-29T15:18:04.317Z,100538.50
2023-03-29T15:20:34.691Z,100539.69
2023-03-29T15:23:03.978Z,100550.44
2023-03-29T15:25:37.474Z,100537.56
2023-03-29T15:28:05.511Z,100544.81
2023-03-29T15:30:35.336Z,100558.00
2023-03-29T15:33:17.015Z,100539.69
2023-03-29T15:35:46.947Z,100546.06
2023-03-29T15:38:14.557Z,100534.03
2023-03-29T15:40:43.503Z,100534.91
2023-03-29T15:43:11.654Z,100536.00
2023-03-29T15:45:39.455Z,100534.88
2023-03-29T15:48:15.451Z,100530.06
2023-03-29T15:50:44.997Z,100539.97
2023-03-29T15:53:15.600Z,100541.06
2023-03-29T15:55:46.137Z,100531.53
2023-03-29T15:58:15.222Z,100526.56
2023-03-29T16:00:44.713Z,100524.81
2023-03-29T16:03:15.683Z,100512.34
2023-03-29T16:05:43.853Z,100509.69
2023-03-29T16:08:11.897Z,100514.75
2023-03-29T16:10:39.802Z,100504.13
2023-03-29T16:13:08.791Z,100510.47
2023-03-29T16:15:36.729Z,100498.84
2023-03-29T16:18:04.312Z,100500.88
2023-03-29T16:20:32.146Z,100501.88
2023-03-29T16:22:59.672Z,100494.88
2023-03-29T16:25:28.226Z,100496.97
2023-03-29T16:27:55.812Z,100503.41
2023-03-29T16:30:25.021Z,100493.25
2023-03-29T16:32:52.560Z,100502.41
2023-03-29T16:35:26.005Z,100502.91
2023-03-29T16:37:53.788Z,100492.00
2023-03-29T16:40:21.944Z,100499.34
2023-03-29T16:42:49.695Z,100495.78
2023-03-29T16:45:18.657Z,100485.63
2023-03-29T16:47:47.880Z,100485.88
2023-03-29T16:50:17.948Z,100479.03
2023-03-29T16:52:46.353Z,100478.25
2023-03-29T16:55:15.128Z,100471.09
2023-03-29T16:57:43.011Z,100480.13
2023-03-29T17:00:14.072Z,100475.00
2023-03-29T17:02:41.738Z,100476.91
2023-03-29T17:05:11.766Z,100472.66
2023-03-29T17:07:40.128Z,100483.03
2023-03-29T17:10:08.537Z,100470.88
2023-03-29T17:12:36.855Z,100468.19
2023-03-29T17:15:05.038Z,100462.75
2023-03-29T17:17:32.584Z,100466.09
2023-03-29T17:20:00.563Z,100467.38
2023-03-29T17:22:29.535Z,100464.50
2023-03-29T17:24:57.113Z,100467.28
2023-03-29T17:27:24.542Z,100451.91
2023-03-29T17:29:52.067Z,100453.97
2023-03-29T17:32:19.632Z,100462.88
2023-03-29T17:34:47.918Z,100456.47
2023-03-29T17:37:15.401Z,100462.47
2023-03-29T17:39:46.030Z,100448.19
2023-03-29T17:42:13.745Z,100457.97
2023-03-29T17:44:41.208Z,100451.13
2023-03-29T17:47:08.922Z,100443.69
2023-03-29T17:49:36.409Z,100457.28
2023-03-29T17:52:04.151Z,100466.41
2023-03-29T17:54:31.882Z,100464.38
2023-03-29T17:57:00.734Z,100459.88
2023-03-29T17:59:28.218Z,100454.69
2023-03-29T18:01:55.704Z,100429.34
2023-03-29T18:04:23.253Z,100450.44
2023-03-29T18:06:50.701Z,100436.78
2023-03-29T18:09:18.265Z,100436.34
2023-03-29T18:11:45.987Z,100438.19
2023-03-29T18:14:14.812Z,100438.75
2023-03-29T18:16:42.327Z,100434.88
2023-03-29T18:19:10.708Z,100442.06
2023-03-29T18:21:38.254Z,100439.38
2023-03-29T18:24:05.926Z,100450.09
2023-03-29T18:26:33.642Z,100456.38
2023-03-29T18:29:01.757Z,100457.94
2023-03-29T18:31:30.671Z,100456.38
2023-03-29T18:33:58.348Z,100468.19
2023-03-29T18:36:26.330Z,100446.00
2023-03-29T18:38:55.706Z,100432.88
2023-03-29T18:41:24.352Z,100428.78
2023-03-29T18:43:51.986Z,100464.06
2023-03-29T18:46:19.449Z,100443.66
2023-03-29T18:48:48.290Z,100437.50
2023-03-29T18:51:15.982Z,100429.03
2023-03-29T18:53:44.286Z,100427.97
2023-03-29T18:56:11.875Z,100421.41
2023-03-29T18:58:39.316Z,100425.06
2023-03-29T19:01:06.996Z,100425.06
2023-03-29T19:03:35.371Z,100424.72
2023-03-29T19:06:04.915Z,100426.75
2023-03-29T19:08:34.266Z,100427.97
2023-03-29T19:11:02.595Z,100428.25
2023-03-29T19:13:30.040Z,100443.13
2023-03-29T19:15:57.523Z,100437.97
2023-03-29T19:18:25.018Z,100445.69
2023-03-29T19:20:54.066Z,100435.91
2023-03-29T19:23:25.052Z,100433.69
2023-03-29T19:25:53.366Z,100446.69
2023-03-29T19:28:21.234Z,100431.81
2023-03-29T19:30:48.837Z,100432.66
2023-03-29T19:33:16.960Z,100438.59
2023-03-29T19:35:44.501Z,100441.31
2023-03-29T19:38:13.518Z,100438.22
2023-03-29T19:40:45.630Z,100431.41
2023-03-29T19:43:16.328Z,100427.75
2023-03-29T19:45:44.385Z,100427.75
2023-03-29T19:48:21.104Z,100423.03
2023-03-29T19:50:49.567Z,100425.72
2023-03-29T19:53:19.048Z,100421.59
2023-03-29T19:55:49.307Z,100404.53
2023-03-29T19:58:17.070Z,100403.06
2023-03-29T20:00:44.683Z,100398.97
2023-03-29T20:03:13.827Z,100387.44
2023-03-29T20:05:41.898Z,100379.63
2023-03-29T20:08:09.954Z,100380.88
2023-03-29T20:10:37.460Z,100381.66
2023-03-29T20:13:06.755Z,100364.00
2023-03-29T20:15:34.710Z,100361.13
2023-03-29T20:18:02.260Z,100357.63
2023-03-29T20:20:29.824Z,100355.97
2023-03-29T20:23:04.631Z,100346.72
2023-03-29T20:25:32.913Z,100341.41
2023-03-29T20:28:00.582Z,100343.22
2023-03-29T20:30:29.659Z,100345.91
2023-03-29T20:32:57.217Z,100346.75
2023-03-29T20:35:24.886Z,100336.47
2023-03-29T20:37:52.754Z,100337.28
2023-03-29T20:40:21.033Z,100324.13
2023-03-29T20:42:48.898Z,100322.03
2023-03-29T20:45:19.225Z,100322.06
2023-03-29T20:47:57.671Z,100326.34
2023-03-29T20:50:27.118Z,100322.88
2023-03-29T20:52:55.181Z,100325.75
2023-03-29T20:55:23.328Z,100328.22
2023-03-29T20:57:51.414Z,100317.94
2023-03-29T21:00:19.918Z,100314.84
2023-03-29T21:02:48.865Z,100324.31
2023-03-29T21:05:17.079Z,100319.81
2023-03-29T21:07:47.877Z,100317.72
2023-03-29T21:10:16.328Z,100317.53
2023-03-29T21:12:43.947Z,100314.25
2023-03-29T21:15:13.286Z,100314.25
2023-03-29T21:17:41.369Z,100305.22
2023-03-29T21:20:12.062Z,100294.53
2023-03-29T21:22:40.152Z,100298.22
2023-03-29T21:25:09.655Z,100291.84
2023-03-29T21:27:37.700Z,100289.56
2023-03-29T21:30:06.415Z,100286.69
2023-03-29T21:32:33.925Z,100286.50
2023-03-29T21:35:01.414Z,100273.53
2023-03-29T21:37:30.382Z,100268.41
2023-03-29T21:39:57.876Z,100261.63
2023-03-29T21:42:25.445Z,100254.44
2023-03-29T21:44:52.926Z,100263.25
2023-03-29T21:47:21.213Z,100265.28
2023-03-29T21:49:48.824Z,100257.50
2023-03-29T21:52:16.317Z,100272.47
2023-03-29T21:54:45.103Z,100266.94
2023-03-29T21:57:12.825Z,100259.97
2023-03-29T21:59:40.664Z,100255.00
2023-03-29T22:02:08.202Z,100250.06
2023-03-29T22:04:37.373Z,100250.50
2023-03-29T22:07:05.608Z,100246.13
2023-03-29T22:09:33.318Z,100242.63
2023-03-29T22:12:02.182Z,100242.44
2023-03-29T22:14:30.143Z,100225.00
2023-03-29T22:16:58.321Z,100215.97
2023-03-29T22:19:25.943Z,100211.00
2023-03-29T22:22:00.314Z,100219.16
2023-03-29T22:24:28.777Z,100215.72
2023-03-29T22:26:56.334Z,100226.13
2023-03-29T22:29:25.267Z,100220.78
2023-03-29T22:31:52.860Z,100225.69
2023-03-29T22:34:20.593Z,100231.03
2023-03-29T22:36:48.054Z,100231.19
2023-03-29T22:39:15.847Z,100227.53
2023-03-29T22:41:43.348Z,100238.97
2023-03-29T22:44:10.888Z,100230.16
2023-03-29T22:46:39.739Z,100230.13
2023-03-29T22:49:07.191Z,100223.59
2023-03-29T22:51:34.632Z,100220.88
2023-03-29T22:54:02.102Z,100226.03
2023-03-29T22:56:29.574Z,100224.47
2023-03-29T22:58:57.032Z,100221.00
2023-03-29T23:01:24.561Z,100231.81
2023-03-29T23:03:53.529Z,100222.84
2023-03-29T23:06:21.046Z,100221.50
2023-03-29T23:08:49.344Z,100211.50
2023-03-29T23:11:16.854Z,100216.56
2023-03-29T23:13:48.513Z,100219.88
2023-03-29T23:16:16.346Z,100216.13
2023-03-29T23:18:43.852Z,100211.41
2023-03-29T23:21:12.803Z,100205.47
2023-03-29T23:23:40.609Z,100203.78
2023-03-29T23:26:10.268Z,100199.34
2023-03-29T23:28:37.813Z,100194.75
2023-03-29T23:31:09.418Z,100191.94
2023-03-29T23:33:40.226Z,100184.53
2023-03-29T23:36:09.794Z,100168.16
2023-03-29T23:38:39.627Z,100165.88
2023-03-29T23:41:10.238Z,100167.69
2023-03-29T23:43:40.309Z,100159.06
2023-03-29T23:46:09.721Z,100166.44
2023-03-29T23:48:37.956Z,100160.16
2023-03-29T23:51:07.809Z,100153.78
2023-03-29T23:53:37.236Z,100155.38
2023-03-29T23:56:07.554Z,100158.75
2023-03-29T23:58:36.755Z,100152.19
